createdAt,value
2023-04-04T00:01:00.371Z,1.23
2023-04-04T00:03:31.167Z,1.22
2023-04-04T00:06:05.120Z,1.20
2023-04-04T00:08:35.722Z,1.19
2023-04-04T00:11:06.597Z,1.17
2023-04-04T00:13:37.608Z,1.21
2023-04-04T00:16:10.345Z,1.22
2023-04-04T00:18:41.293Z,1.18
2023-04-04T00:21:14.492Z,1.16
2023-04-04T00:23:45.176Z,1.12
2023-04-04T00:26:17.614Z,1.14
2023-04-04T00:28:48.387Z,1.14
2023-04-04T00:31:19.735Z,1.12
2023-04-04T00:33:50.735Z,1.10
2023-04-04T00:36:24.650Z,1.12
2023-04-04T00:38:55.226Z,1.14
2023-04-04T00:41:25.778Z,1.14
2023-04-04T00:43:58.636Z,1.17
2023-04-04T00:46:30.784Z,1.19
2023-04-04T00:49:01.384Z,1.15
2023-04-04T00:51:34.674Z,1.13
2023-04-04T00:54:06.140Z,1.17
2023-04-04T00:56:41.260Z,1.14
2023-04-04T00:59:11.850Z,1.21
2023-04-04T01:01:42.757Z,1.21
2023-04-04T01:04:13.943Z,1.13
2023-04-04T01:06:47.687Z,1.09
2023-04-04T01:09:18.521Z,1.06
2023-04-04T01:11:50.240Z,1.07
2023-04-04T01:14:21.193Z,1.09
2023-04-04T01:16:53.162Z,1.08
2023-04-04T01:19:33.413Z,1.06
2023-04-04T01:22:11.680Z,0.98
2023-04-04T01:24:45.344Z,0.98
2023-04-04T01:27:18.923Z,1.02
2023-04-04T01:29:57.959Z,1.04
2023-04-04T01:32:39.227Z,1.03
2023-04-04T01:35:21.521Z,1.01
2023-04-04T01:38:00.513Z,0.96
2023-04-04T01:40:37.972Z,0.89
2023-04-04T01:43:13.223Z,0.85
2023-04-04T01:45:46.412Z,0.81
2023-04-04T01:48:18.939Z,0.85
2023-04-04T01:50:53.904Z,0.76
2023-04-04T01:53:25.472Z,0.77
2023-04-04T01:55:56.823Z,0.82
2023-04-04T01:58:30.483Z,0.85
2023-04-04T02:01:01.495Z,0.85
2023-04-04T02:03:32.307Z,0.83
2023-04-04T02:06:03.067Z,0.85
2023-04-04T02:08:33.594Z,0.80
2023-04-04T02:11:04.379Z,0.75
2023-04-04T02:13:41.434Z,0.76
2023-04-04T02:16:13.810Z,0.76
2023-04-04T02:18:45.032Z,0.75
2023-04-04T02:21:16.038Z,0.69
2023-04-04T02:23:46.569Z,0.70
2023-04-04T02:26:18.163Z,0.72
2023-04-04T02:28:51.442Z,0.75
2023-04-04T02:31:23.261Z,0.73
2023-04-04T02:33:54.342Z,0.75
2023-04-04T02:36:25.572Z,0.69
2023-04-04T02:38:58.069Z,0.73
2023-04-04T02:41:30.620Z,0.75
2023-04-04T02:44:03.998Z,0.76
2023-04-04T02:46:36.129Z,0.75
2023-04-04T02:49:09.671Z,0.72
2023-04-04T02:51:43.585Z,0.77
2023-04-04T02:54:14.407Z,0.78
2023-04-04T02:56:48.017Z,0.77
2023-04-04T02:59:21.651Z,0.75
2023-04-04T03:01:52.426Z,0.74
2023-04-04T03:04:23.443Z,0.73
2023-04-04T03:06:54.253Z,0.73
2023-04-04T03:09:24.937Z,0.73
2023-04-04T03:11:55.567Z,0.70
2023-04-04T03:14:30.218Z,0.65
2023-04-04T03:17:01.873Z,0.67
2023-04-04T03:19:33.320Z,0.69
2023-04-04T03:22:04.014Z,0.70
2023-04-04T03:24:38.168Z,0.70
2023-04-04T03:27:09.714Z,0.67
2023-04-04T03:29:42.917Z,0.68
2023-04-04T03:32:13.771Z,0.67
2023-04-04T03:34:44.892Z,0.65
2023-04-04T03:37:15.695Z,0.65
2023-04-04T03:39:46.353Z,0.63
2023-04-04T03:42:17.129Z,0.62
2023-04-04T03:44:50.479Z,0.59
2023-04-04T03:47:30.694Z,0.58
2023-04-04T03:50:03.332Z,0.58
2023-04-04T03:52:34.910Z,0.56
2023-04-04T03:55:05.579Z,0.53
2023-04-04T03:57:36.715Z,0.52
2023-04-04T04:00:12.736Z,0.53
2023-04-04T04:02:43.412Z,0.51
2023-04-04T04:05:14.545Z,0.44
2023-04-04T04:07:47.230Z,0.45
2023-04-04T04:10:18.578Z,0.45
2023-04-04T04:12:49.656Z,0.49
2023-04-04T04:15:22.852Z,0.49
2023-04-04T04:17:53.666Z,0.52
2023-04-04T04:20:25.937Z,0.53
2023-04-04T04:22:57.517Z,0.54
2023-04-04T04:25:28.445Z,0.51
2023-04-04T04:28:12.637Z,0.48
2023-04-04T04:30:46.499Z,0.41
2023-04-04T04:33:19.435Z,0.40
2023-04-04T04:36:03.275Z,0.31
2023-04-04T04:38:43.056Z,0.29
2023-04-04T04:41:14.248Z,0.27
2023-04-04T04:43:49.323Z,0.32
2023-04-04T04:46:22.617Z,0.33
2023-04-04T04:48:54.176Z,0.35
2023-04-04T04:51:30.005Z,0.33
2023-04-04T04:54:02.639Z,0.41
2023-04-04T04:56:34.789Z,0.44
2023-04-04T04:59:13.028Z,0.47
2023-04-04T05:01:49.623Z,0.49
2023-04-04T05:04:20.575Z,0.50
2023-04-04T05:07:08.464Z,0.51
2023-04-04T05:09:39.390Z,0.47
2023-04-04T05:12:10.162Z,0.39
2023-04-04T05:14:44.958Z,0.45
2023-04-04T05:17:18.629Z,0.49
2023-04-04T05:19:49.656Z,0.44
2023-04-04T05:22:24.574Z,0.35
2023-04-04T05:24:57.019Z,0.37
2023-04-04T05:27:29.673Z,0.42
2023-04-04T05:30:04.064Z,0.47
2023-04-04T05:32:50.378Z,0.50
2023-04-04T05:35:26.766Z,0.48
2023-04-04T05:37:59.145Z,0.52
2023-04-04T05:40:29.883Z,0.53
2023-04-04T05:43:09.704Z,0.61
2023-04-04T05:45:59.345Z,0.60
2023-04-04T05:48:34.241Z,0.61
2023-04-04T05:51:05.361Z,0.71
2023-04-04T05:53:47.930Z,1.25
2023-04-04T05:56:25.135Z,1.53
2023-04-04T05:58:58.120Z,1.78
2023-04-04T06:01:31.750Z,1.95
2023-04-04T06:04:08.099Z,2.00
2023-04-04T06:06:39.332Z,2.08
2023-04-04T06:09:10.180Z,1.99
2023-04-04T06:11:41.537Z,1.85
2023-04-04T06:14:15.285Z,1.98
2023-04-04T06:16:47.277Z,2.05
2023-04-04T06:19:21.880Z,2.05
2023-04-04T06:21:52.633Z,2.28
2023-04-04T06:24:23.481Z,2.50
2023-04-04T06:26:54.438Z,2.60
2023-04-04T06:29:28.324Z,2.53
2023-04-04T06:32:02.448Z,2.40
2023-04-04T06:34:43.029Z,2.28
2023-04-04T06:37:15.110Z,2.20
2023-04-04T06:39:55.313Z,2.11
2023-04-04T06:42:29.055Z,2.12
2023-04-04T06:45:03.603Z,2.24
2023-04-04T06:47:35.410Z,2.11
2023-04-04T06:50:10.228Z,2.25
2023-04-04T06:52:41.146Z,2.18
2023-04-04T06:55:12.053Z,2.19
2023-04-04T06:57:43.338Z,2.17
2023-04-04T07:00:16.234Z,2.13
2023-04-04T07:02:47.496Z,2.10
2023-04-04T07:05:20.813Z,1.97
2023-04-04T07:07:54.962Z,2.22
2023-04-04T07:10:25.628Z,2.26
2023-04-04T07:12:56.294Z,2.31
2023-04-04T07:15:28.228Z,2.43
2023-04-04T07:17:58.996Z,2.46
2023-04-04T07:20:32.436Z,2.41
2023-04-04T07:23:03.212Z,2.46
2023-04-04T07:25:33.851Z,2.48
2023-04-04T07:28:12.485Z,2.44
2023-04-04T07:30:44.071Z,2.55
2023-04-04T07:33:14.661Z,2.60
2023-04-04T07:35:48.709Z,2.65
2023-04-04T07:38:19.360Z,2.64
2023-04-04T07:40:51.777Z,2.76
2023-04-04T07:43:23.007Z,2.89
2023-04-04T07:45:53.704Z,2.98
2023-04-04T07:48:24.586Z,3.02
2023-04-04T07:50:57.881Z,3.09
2023-04-04T07:53:28.621Z,3.17
2023-04-04T07:55:59.645Z,3.25
2023-04-04T07:58:30.563Z,3.41
2023-04-04T08:01:01.463Z,3.43
2023-04-04T08:03:33.109Z,3.51
2023-04-04T08:06:06.927Z,3.53
2023-04-04T08:08:37.762Z,3.56
2023-04-04T08:11:08.869Z,3.62
2023-04-04T08:13:39.590Z,3.62
2023-04-04T08:16:10.772Z,3.68
2023-04-04T08:18:41.434Z,3.73
2023-04-04T08:21:14.752Z,3.81
2023-04-04T08:23:45.299Z,3.84
2023-04-04T08:26:15.996Z,3.82
2023-04-04T08:28:46.778Z,3.87
2023-04-04T08:31:17.709Z,3.92
2023-04-04T08:33:48.431Z,3.99
2023-04-04T08:36:21.818Z,4.10
2023-04-04T08:38:52.709Z,4.13
2023-04-04T08:41:25.389Z,4.10
2023-04-04T08:43:57.651Z,4.14
2023-04-04T08:46:30.333Z,4.29
2023-04-04T08:49:02.314Z,4.50
2023-04-04T08:51:37.412Z,4.60
2023-04-04T08:54:09.633Z,4.62
2023-04-04T08:56:40.437Z,4.68
2023-04-04T08:59:11.791Z,4.78
2023-04-04T09:01:43.211Z,4.77
2023-04-04T09:04:14.615Z,4.62
2023-04-04T09:06:48.571Z,4.54
2023-04-04T09:09:20.272Z,4.56
2023-04-04T09:11:52.212Z,4.79
2023-04-04T09:14:24.243Z,5.03
2023-04-04T09:16:55.135Z,5.22
2023-04-04T09:19:26.576Z,5.41
2023-04-04T09:22:01.037Z,5.25
2023-04-04T09:24:40.541Z,5.10
2023-04-04T09:27:12.486Z,5.04
2023-04-04T09:29:44.392Z,4.93
2023-04-04T09:32:18.928Z,5.08
2023-04-04T09:34:49.945Z,5.24
2023-04-04T09:37:23.309Z,5.38
2023-04-04T09:39:55.055Z,5.39
2023-04-04T09:42:27.306Z,5.35
2023-04-04T09:44:58.713Z,5.58
2023-04-04T09:47:33.508Z,5.60
2023-04-04T09:50:11.622Z,5.65
2023-04-04T09:52:45.009Z,5.53
2023-04-04T09:55:15.900Z,5.53
2023-04-04T09:57:46.966Z,5.84
2023-04-04T10:00:23.434Z,5.64
2023-04-04T10:02:58.488Z,5.83
2023-04-04T10:05:29.155Z,5.88
2023-04-04T10:08:02.512Z,5.96
2023-04-04T10:10:34.584Z,5.71
2023-04-04T10:13:05.704Z,5.63
2023-04-04T10:15:40.050Z,5.72
2023-04-04T10:18:10.870Z,5.90
2023-04-04T10:20:41.601Z,6.00
2023-04-04T10:23:17.444Z,6.15
2023-04-04T10:25:49.549Z,5.89
2023-04-04T10:28:21.662Z,6.07
2023-04-04T10:31:05.862Z,6.24
2023-04-04T10:33:47.110Z,6.19
2023-04-04T10:36:24.055Z,6.37
2023-04-04T10:39:07.776Z,6.43
2023-04-04T10:41:39.434Z,6.50
2023-04-04T10:44:19.216Z,6.48
2023-04-04T10:46:52.360Z,6.53
2023-04-04T10:49:24.498Z,6.58
2023-04-04T10:51:57.796Z,6.50
2023-04-04T10:54:32.367Z,6.63
2023-04-04T10:57:04.322Z,6.82
2023-04-04T10:59:35.156Z,6.73
2023-04-04T11:02:07.177Z,6.86
2023-04-04T11:04:42.982Z,7.20
2023-04-04T11:07:15.521Z,7.33
2023-04-04T11:09:54.089Z,7.66
2023-04-04T11:12:30.267Z,7.41
2023-04-04T11:15:10.668Z,7.18
2023-04-04T11:17:59.726Z,7.19
2023-04-04T11:20:35.359Z,6.98
2023-04-04T11:23:07.993Z,6.99
2023-04-04T11:25:43.521Z,7.17
2023-04-04T11:28:29.472Z,7.18
2023-04-04T11:31:36.124Z,7.27
2023-04-04T11:34:08.745Z,7.56
2023-04-04T11:36:58.202Z,7.66
2023-04-04T11:39:31.265Z,7.65
2023-04-04T11:42:10.637Z,7.40
2023-04-04T11:44:44.777Z,7.49
2023-04-04T11:47:16.124Z,7.58
2023-04-04T11:49:49.059Z,7.97
2023-04-04T11:52:21.385Z,8.38
2023-04-04T11:54:53.225Z,8.55
2023-04-04T11:57:27.414Z,8.44
2023-04-04T11:59:58.425Z,8.66
2023-04-04T12:02:32.378Z,8.54
2023-04-04T12:05:06.692Z,8.58
2023-04-04T12:07:37.214Z,8.42
2023-04-04T12:10:09.362Z,8.32
2023-04-04T12:12:43.262Z,8.38
2023-04-04T12:15:17.810Z,8.32
2023-04-04T12:17:51.336Z,8.04
2023-04-04T12:20:25.580Z,7.75
2023-04-04T12:22:56.351Z,7.47
2023-04-04T12:25:28.681Z,7.24
2023-04-04T12:28:02.942Z,7.50
2023-04-04T12:30:34.996Z,7.71
2023-04-04T12:33:06.426Z,7.96
2023-04-04T12:35:37.653Z,8.41
2023-04-04T12:38:11.134Z,8.44
2023-04-04T12:40:42.611Z,8.37
2023-04-04T12:43:21.381Z,8.40
2023-04-04T12:45:54.267Z,8.38
2023-04-04T12:48:30.659Z,8.42
2023-04-04T12:51:05.025Z,8.32
2023-04-04T12:53:36.190Z,8.23
2023-04-04T12:56:08.014Z,8.08
2023-04-04T12:58:41.675Z,8.11
2023-04-04T13:01:13.131Z,7.93
2023-04-04T13:03:44.754Z,7.94
2023-04-04T13:06:16.950Z,7.90
2023-04-04T13:08:55.272Z,8.01
2023-04-04T13:11:26.638Z,8.06
2023-04-04T13:14:07.066Z,8.20
2023-04-04T13:16:39.852Z,8.40
2023-04-04T13:19:10.616Z,8.42
2023-04-04T13:21:42.749Z,9.00
2023-04-04T13:24:13.593Z,9.42
2023-04-04T13:26:44.240Z,9.44
2023-04-04T13:29:17.574Z,9.33
2023-04-04T13:31:48.149Z,9.22
2023-04-04T13:34:18.670Z,9.12
2023-04-04T13:36:49.659Z,8.75
2023-04-04T13:39:21.205Z,8.51
2023-04-04T13:41:52.068Z,8.85
2023-04-04T13:44:26.809Z,9.14
2023-04-04T13:46:57.889Z,9.09
2023-04-04T13:49:28.645Z,9.01
2023-04-04T13:51:59.313Z,9.14
2023-04-04T13:54:30.053Z,9.02
2023-04-04T13:57:01.335Z,8.66
2023-04-04T13:59:35.128Z,8.44
2023-04-04T14:02:06.347Z,8.33
2023-04-04T14:04:36.946Z,8.13
2023-04-04T14:07:08.168Z,8.40
2023-04-04T14:09:38.997Z,8.66
2023-04-04T14:12:10.353Z,8.44
2023-04-04T14:14:43.798Z,8.20
2023-04-04T14:17:14.497Z,8.01
2023-04-04T14:19:46.515Z,7.99
2023-04-04T14:22:17.132Z,8.29
2023-04-04T14:24:51.851Z,8.54
2023-04-04T14:27:24.726Z,8.44
2023-04-04T14:29:59.913Z,8.13
2023-04-04T14:32:33.328Z,7.97
2023-04-04T14:35:06.835Z,7.78
2023-04-04T14:37:37.813Z,7.65
2023-04-04T14:40:09.869Z,7.43
2023-04-04T14:42:42.592Z,7.45
2023-04-04T14:45:17.830Z,7.35
2023-04-04T14:47:48.489Z,7.52
2023-04-04T14:50:19.152Z,7.42
2023-04-04T14:52:53.014Z,7.42
2023-04-04T14:55:23.718Z,7.36
2023-04-04T14:58:02.575Z,7.41
2023-04-04T15:00:36.423Z,7.39
2023-04-04T15:03:08.657Z,7.53
2023-04-04T15:05:39.925Z,7.68
2023-04-04T15:08:11.010Z,7.73
2023-04-04T15:10:41.898Z,7.80
2023-04-04T15:13:12.768Z,7.88
2023-04-04T15:15:46.251Z,7.85
2023-04-04T15:18:18.072Z,7.82
2023-04-04T15:20:48.903Z,7.68
2023-04-04T15:23:19.483Z,7.51
2023-04-04T15:25:50.321Z,7.64
2023-04-04T15:28:21.000Z,7.72
2023-04-04T15:30:54.309Z,7.72
2023-04-04T15:33:24.954Z,7.84
2023-04-04T15:35:55.519Z,7.88
2023-04-04T15:38:26.216Z,7.94
2023-04-04T15:40:58.105Z,8.05
2023-04-04T15:43:28.677Z,7.97
2023-04-04T15:46:01.830Z,7.95
2023-04-04T15:48:32.424Z,8.04
2023-04-04T15:51:05.209Z,8.22
2023-04-04T15:53:36.658Z,8.35
2023-04-04T15:56:07.415Z,8.38
2023-04-04T15:58:38.051Z,8.47
2023-04-04T16:01:12.400Z,8.40
2023-04-04T16:03:43.126Z,8.42
2023-04-04T16:06:13.920Z,8.46
2023-04-04T16:08:45.532Z,8.33
2023-04-04T16:11:17.178Z,8.07
2023-04-04T16:13:47.740Z,7.94
2023-04-04T16:16:21.111Z,7.79
2023-04-04T16:18:51.792Z,7.87
2023-04-04T16:21:22.447Z,7.92
2023-04-04T16:23:53.061Z,7.92
2023-04-04T16:26:23.888Z,7.93
2023-04-04T16:28:54.625Z,8.01
2023-04-04T16:31:27.870Z,8.03
2023-04-04T16:33:58.654Z,8.02
2023-04-04T16:36:29.224Z,7.97
2023-04-04T16:39:00.233Z,7.94
2023-04-04T16:41:31.079Z,7.83
2023-04-04T16:44:02.448Z,7.76
2023-04-04T16:46:35.821Z,7.68
2023-04-04T16:49:06.935Z,7.61
2023-04-04T16:51:37.551Z,7.57
2023-04-04T16:54:08.710Z,7.54
2023-04-04T16:56:39.372Z,7.54
2023-04-04T16:59:10.380Z,7.51
2023-04-04T17:01:49.149Z,7.45
2023-04-04T17:04:20.141Z,7.42
2023-04-04T17:06:50.913Z,7.40
2023-04-04T17:09:21.976Z,7.34
2023-04-04T17:11:52.901Z,7.28
2023-04-04T17:14:24.048Z,7.18
2023-04-04T17:17:00.472Z,7.18
2023-04-04T17:19:32.243Z,7.18
2023-04-04T17:22:02.906Z,7.15
2023-04-04T17:24:33.703Z,7.13
2023-04-04T17:27:05.223Z,7.16
2023-04-04T17:29:36.259Z,7.20
2023-04-04T17:32:09.547Z,7.28
2023-04-04T17:34:40.444Z,7.24
2023-04-04T17:37:11.800Z,7.17
2023-04-04T17:39:45.452Z,7.20
2023-04-04T17:42:16.522Z,7.21
2023-04-04T17:44:47.529Z,7.20
2023-04-04T17:47:21.387Z,7.09
2023-04-04T17:49:52.713Z,7.08
2023-04-04T17:52:23.978Z,7.09
2023-04-04T17:54:55.092Z,7.05
2023-04-04T17:57:25.716Z,7.02
2023-04-04T17:59:56.825Z,6.96
2023-04-04T18:02:30.182Z,6.91
2023-04-04T18:05:01.571Z,6.86
2023-04-04T18:07:32.331Z,6.80
2023-04-04T18:10:03.106Z,6.77
2023-04-04T18:12:35.733Z,6.78
2023-04-04T18:15:07.648Z,6.76
2023-04-04T18:17:42.381Z,6.72
2023-04-04T18:20:27.674Z,6.70
2023-04-04T18:23:04.264Z,6.68
2023-04-04T18:25:36.145Z,6.65
2023-04-04T18:28:06.851Z,6.62
2023-04-04T18:30:39.260Z,6.62
2023-04-04T18:33:13.530Z,6.55
2023-04-04T18:35:44.378Z,6.40
2023-04-04T18:38:15.181Z,6.57
2023-04-04T18:40:48.102Z,6.54
2023-04-04T18:43:18.689Z,6.53
2023-04-04T18:45:49.646Z,6.54
2023-04-04T18:48:25.129Z,6.53
2023-04-04T18:50:55.602Z,6.47
2023-04-04T18:53:29.447Z,6.45
2023-04-04T18:56:00.487Z,6.43
2023-04-04T18:58:31.569Z,6.42
2023-04-04T19:01:02.250Z,6.39
2023-04-04T19:03:42.241Z,6.40
2023-04-04T19:06:14.841Z,6.35
2023-04-04T19:08:47.051Z,6.31
2023-04-04T19:11:18.149Z,6.29
2023-04-04T19:13:48.635Z,6.27
2023-04-04T19:16:19.199Z,6.26
2023-04-04T19:18:52.331Z,6.26
2023-04-04T19:21:22.906Z,6.27
2023-04-04T19:23:53.551Z,6.28
2023-04-04T19:26:24.304Z,6.29
2023-04-04T19:28:54.941Z,6.21
2023-04-04T19:31:30.293Z,6.26
2023-04-04T19:34:05.902Z,6.24
2023-04-04T19:36:39.356Z,6.25
2023-04-04T19:39:11.966Z,6.25
2023-04-04T19:41:43.847Z,6.29
2023-04-04T19:44:20.614Z,6.30
2023-04-04T19:46:53.254Z,6.22
2023-04-04T19:49:30.829Z,6.33
2023-04-04T19:52:04.506Z,6.31
2023-04-04T19:54:41.513Z,6.30
2023-04-04T19:57:22.038Z,6.33
2023-04-04T20:00:05.391Z,6.35
2023-04-04T20:02:53.007Z,6.36
2023-04-04T20:06:05.509Z,6.33
2023-04-04T20:08:42.387Z,6.34
2023-04-04T20:11:14.501Z,6.34
2023-04-04T20:13:46.520Z,6.32
2023-04-04T20:16:18.640Z,6.29
2023-04-04T20:18:49.827Z,6.18
2023-04-04T20:21:22.014Z,6.11
2023-04-04T20:23:56.739Z,6.05
2023-04-04T20:26:51.739Z,6.01
2023-04-04T20:29:23.462Z,5.95
2023-04-04T20:31:55.791Z,5.91
2023-04-04T20:34:42.032Z,5.83
2023-04-04T20:37:16.304Z,5.75
2023-04-04T20:39:52.237Z,5.64
2023-04-04T20:42:35.647Z,5.61
2023-04-04T20:45:31.997Z,5.57
2023-04-04T20:48:06.625Z,5.53
2023-04-04T20:50:48.997Z,5.45
2023-04-04T20:53:27.595Z,5.36
2023-04-04T20:56:01.186Z,5.37
2023-04-04T20:58:33.427Z,5.18
2023-04-04T21:01:04.542Z,5.34
2023-04-04T21:03:38.281Z,5.23
2023-04-04T21:06:18.120Z,5.21
2023-04-04T21:08:50.776Z,5.15
2023-04-04T21:11:30.192Z,5.08
2023-04-04T21:14:01.136Z,5.01
2023-04-04T21:16:32.418Z,4.95
2023-04-04T21:19:04.456Z,4.95
2023-04-04T21:21:36.730Z,4.73
2023-04-04T21:24:12.872Z,4.83
2023-04-04T21:26:46.395Z,4.80
2023-04-04T21:29:24.383Z,4.70
2023-04-04T21:31:56.600Z,4.72
2023-04-04T21:34:29.896Z,4.72
2023-04-04T21:37:04.484Z,4.68
2023-04-04T21:39:35.264Z,4.67
2023-04-04T21:42:09.397Z,4.64
2023-04-04T21:44:40.549Z,4.61
2023-04-04T21:47:12.608Z,4.58
2023-04-04T21:49:44.533Z,4.52
2023-04-04T21:52:15.286Z,4.58
2023-04-04T21:54:46.024Z,4.58
2023-04-04T21:57:19.295Z,4.56
2023-04-04T21:59:49.929Z,4.47
2023-04-04T22:02:20.663Z,4.53
2023-04-04T22:04:51.892Z,4.42
2023-04-04T22:07:22.735Z,4.51
2023-04-04T22:09:53.313Z,4.48
2023-04-04T22:12:26.463Z,4.44
2023-04-04T22:14:58.934Z,4.42
2023-04-04T22:17:29.462Z,4.37
2023-04-04T22:20:07.720Z,4.29
2023-04-04T22:22:39.618Z,4.27
2023-04-04T22:25:11.420Z,4.12
2023-04-04T22:27:44.758Z,4.23
2023-04-04T22:30:16.424Z,4.23
2023-04-04T22:32:47.499Z,4.24
2023-04-04T22:35:18.513Z,4.23
2023-04-04T22:37:49.289Z,4.22
2023-04-04T22:40:20.129Z,4.19
2023-04-04T22:42:53.340Z,4.18
2023-04-04T22:45:24.122Z,4.16
2023-04-04T22:47:55.153Z,4.11
2023-04-04T22:50:26.939Z,4.08
2023-04-04T22:52:58.938Z,4.04
2023-04-04T22:55:30.384Z,3.96
2023-04-04T22:58:03.644Z,3.86
2023-04-04T23:00:34.304Z,3.96
2023-04-04T23:03:06.402Z,3.90
2023-04-04T23:05:37.428Z,3.71
2023-04-04T23:08:08.704Z,3.88
2023-04-04T23:10:39.914Z,3.86
2023-04-04T23:13:13.375Z,3.82
2023-04-04T23:15:45.327Z,3.62
2023-04-04T23:18:16.266Z,3.68
2023-04-04T23:20:47.637Z,3.74
2023-04-04T23:23:18.245Z,3.70
2023-04-04T23:25:48.854Z,3.69
2023-04-04T23:28:22.117Z,3.67
2023-04-04T23:30:53.000Z,3.62
2023-04-04T23:33:26.250Z,3.60
2023-04-04T23:38:27.607Z,3.54
2023-04-04T23:40:58.693Z,3.54
2023-04-04T23:43:33.144Z,3.53
2023-04-04T23:46:04.202Z,3.49
2023-04-04T23:48:35.633Z,3.44
2023-04-04T23:51:08.683Z,3.30
2023-04-04T23:53:39.492Z,3.40
2023-04-04T23:56:11.193Z,3.40
2023-04-04T23:58:45.066Z,3.36
